Aérodrome :
LOGIN :

S'inscrire | Disclaimer

   EN    FR    IT 

 










Légende :    VFR   VFR Marginal   IFR   IFR Intensif   IFR Très Intensif
Visi : 
Plafond : 
>= 8 km
>= 3000ft
5 à 8 km
1000 à 3000 ft
1500m à 5 km
500 à 1000 ft
800 à 1500m
200 à 500 ft
< 800m
< 200 ft
Symboles :   Orages  Brouillard  Fortes neiges  Fortes précipitations  Vent > 20 kt
SIGMETs :   Divers  Orages  Givrage  Turbulence  Onde Orograph.  Cendres Volcan.







- Altitude de l'aérodrome : 256 ft
- Code IATA : CFR
- Voir les cartes d'approche


LFRK - Caen

DERNIER METAR :
  • 230700Z AUTO 22018KT 9999 FEW029 SCT042 13/10 Q0998 TEMPO 3000 RA BKN010TCU BECMG 24020G35KT

METARs EXPIRÉS :
  • 230630Z AUTO 22017KT 9999 FEW010 SCT026 OVC039 14/11 Q0998 TEMPO 3000 RA BKN010TCU BECMG 24020G35KT
  • 230600Z AUTO 22018KT 9999 SCT025 BKN035 14/11 Q0997 TEMPO 3000 RA BKN010TCU BECMG 24020G35KT
  • 230530Z AUTO 23020G30KT 9999 FEW026 OVC036 14/11 Q0997 TEMPO 3000 RA BKN010TCU
  • 230500Z AUTO 23019KT 9999 BKN028 OVC034 14/11 Q0996
  • 230430Z AUTO 22020KT 9999 BKN025 OVC031 14/11 Q0995

TAF TAF LFRK
Valide du 23 à 06h jusqu'au 23 à 15h UTC


230500Z 2306/2315 24020G35KT 9999 BKN030
TEMPO 2306/2310 3000 RA BKN010TCU
BECMG 2310/2312 25010KT
Météo : +33 2 31 26 68 11
Pas de NOTAMs connus pour ce terrain.



MET'MAP, la Météo Aéronautique d'un coup d'oeil ! - Copyright ORBIFLY Décembre 2007 - Disclaimer

ORBIFLY MET'MAP TEAM :

Programmation & Développement : Alexandra Zaïnal
Conception & Développement : Baudouin d'Aumeries
Co-Programmation & Développement : Marc-Olivier Méhu
Soutien technique & logistique : Manuel Goepfert

Contact : metmap@orbifly.com




SOURCES & CREDITS :

   NOAA